Nearby METAR Reports

 

KSJC - San Jose, California, USA
Distance from station: NE 14km
Updated: 21/01/2018 23:53
Mostly cloudy
Mostly cloudy
 Wind from ESE
Wind: ESE 13 km/h
Temperature: 11°C
Dew Point: 6°C
Humidity: 72%
Barometer: 1027.8 hPa
Clouds: Mostly cloudy
Visibility: 16 km
Cloud details: Few Clouds 488 m
Partly cloudy 1524 m
Mostly cloudy 1981 m
2018/01/22 07:53 KSJC 220753Z 12007KT 10SM FEW016 SCT050 BKN065 11/06 A3035 RMK AO2 SLP278 LAST T01110061 401560028
KNUQ - Moffett Nas/Mtn, California, USA
Distance from station: N 14km
Updated: 21/01/2018 23:56
Overcast
Overcast
 Wind from SE
Wind: SE 13 km/h
Temperature: 11°C
Dew Point: 6°C
Humidity: 72%
Barometer: 1027.8 hPa
Clouds: Overcast
Visibility: 16 km
Cloud details: Few Clouds 1158 m
Partly cloudy 1981 m
Overcast 2743 m
2018/01/22 07:56 KNUQ 220756Z 13007KT 10SM FEW038 SCT065 OVC090 11/06 A3035 RMK AO2 SLP281 T01060061 401390011
 
KPAO - Palo Alto, California, USA
Distance from station: NNW 23km
Updated: 21/01/2018 20:47
NOT Current
Mostly cloudy
Mostly cloudy
 Wind from calm
Wind: Calm
Temperature: 12°C
Dew Point: 7°C
Humidity: 72%
Barometer: 1027.8 hPa
Clouds: Mostly cloudy
Visibility: 16 km
Cloud details: Mostly cloudy 3658 m
2018/01/22 04:47 KPAO 220447Z 00000KT 10SM BKN120 12/07 A3035 RMK LAST
KRHV - San Jose/Reid, California, USA
Distance from station: ENE 19km
Updated: 21/01/2018 21:47
NOT Current
Mostly cloudy
Mostly cloudy
 Wind from calm
Wind: Calm
Temperature: 10°C
Dew Point: 6°C
Humidity: 76%
Barometer: 1027.4 hPa
Clouds: Mostly cloudy
Visibility: 16 km
Cloud details: Partly cloudy 1829 m
Mostly cloudy 4572 m
2018/01/22 05:47 KRHV 220547Z 00000KT 10SM SCT060 BKN150 10/06 A3034 RMK LAST
 
KOAK - Oakland, California, USA
Distance from station: NNW 50km
Updated: 22/01/2018 00:13
Light rain, Mist, Overcast
Light rain, Mist, Overcast
 Wind from SE
Wind: SE 17 km/h
Temperature: 10°C
Wind Chill: 8°C
Dew Point: 9°C
Humidity: 94%
Barometer: 1027.4 hPa
Summary: Light rain, Mist
Clouds: Overcast
Visibility: 10 km
Cloud details: Partly cloudy 792 m
Mostly cloudy 1006 m
Overcast 1524 m
2018/01/22 08:13 KOAK 220813Z 14009KT 6SM -RA BR SCT026 BKN033 OVC050 10/09 A3034 RMK AO2 P0001 T01000089
KSQL - San Carlos Airpo, California, USA
Distance from station: NW 34km
Updated: 22/01/2018 00:15
Overcast
Overcast
 Wind from S
Wind: S 17 km/h
Temperature: 13°C
Dew Point: 8°C
Humidity: 72%
Barometer: 1027.1 hPa
Clouds: Overcast
Visibility: 16 km
Cloud details: Overcast 1676 m
2018/01/22 08:15 KSQL 220815Z AUTO 17009KT 10SM OVC055 13/08 A3033 RMK AO2
 
KSFO - San Francisco, California, USA
Distance from station: NW 49km
Updated: 21/01/2018 23:56
Light rain, Overcast
Light rain, Overcast
 Wind from SSE
Wind: SSE 19 km/h
Temperature: 12°C
Dew Point: 8°C
Humidity: 77%
Barometer: 1027.1 hPa
Summary: Light rain
Clouds: Overcast
Visibility: 14 km
Cloud details: Partly cloudy 762 m
Mostly cloudy 1067 m
Overcast 1676 m
2018/01/22 07:56 KSFO 220756Z 16010KT 9SM -RA SCT025 BKN035 OVC055 12/08 A3033 RMK AO2 RAB41 SLP269 P0000 T01170083 401390056
KE16 - San Martin, California, USA
Distance from station: ESE 43km
Updated: 22/01/2018 00:10
Overcast
Overcast
 Wind from calm
Wind: Calm
Temperature: 8°C
Dew Point: 6°C
Humidity: 87%
Barometer: 1029.1 hPa
Clouds: Overcast
Visibility: 16 km
Cloud details: Partly cloudy 2134 m
Overcast 3353 m
2018/01/22 08:10 KE16 220810Z AUTO 00000KT 10SM SCT070 OVC110 08/06 A3039 RMK AO2
 
KWVI - Watsonville, California, USA
Distance from station: SSE 44km
Updated: 21/01/2018 23:53
Overcast
Overcast
 Wind from calm
Wind: Calm
Temperature: 8°C
Dew Point: 6°C
Humidity: 87%
Barometer: 1028.8 hPa
Clouds: Overcast
Visibility: 16 km
Cloud details: Overcast 2134 m
2018/01/22 07:53 KWVI 220753Z AUTO 00000KT 10SM OVC070 08/06 A3038 RMK AO2 SLP287 T00780061 401390022
KHAF - Half Moon Bay, California, USA
Distance from station: WNW 50km
Updated: 22/01/2018 00:15

 
2018/01/22 08:15 KHAF 220815Z AUTO RMK AO2 PWINO
 
KHWD - Hayward, California, USA
Distance from station: N 44km
Updated: 21/01/2018 23:54
Overcast
Overcast
 Wind from SSE
Wind: SSE 15 km/h
Temperature: 11°C
Dew Point: 6°C
Humidity: 72%
Barometer: 1027.4 hPa
Clouds: Overcast
Visibility: 16 km
Cloud details: Overcast 853 m
2018/01/22 07:54 KHWD 220754Z AUTO 15008KT 10SM OVC028 11/06 A3034 RMK AO2 RAE36 SLP283 P0000 T01110056 401390033
KLVK - Livermore, California, USA
Distance from station: NNE 51km
Updated: 21/01/2018 23:53
Light rain, Overcast
Light rain, Overcast
 Wind from E
Wind: E 6 km/h
Temperature: 9°C
Dew Point: 6°C
Humidity: 82%
Barometer: 1027.1 hPa
Summary: Light rain
Clouds: Overcast
Visibility: 16 km
Cloud details: Few Clouds 1311 m
Overcast 1676 m
2018/01/22 07:53 KLVK 220753Z AUTO 10003KT 10SM -RA FEW043 OVC055 09/06 A3033 RMK AO2 RAB51 SLP272 P0000 T00890061 401391006